sensor_id;sensor_type;location;lat;lon;timestamp;P1;durP1;ratioP1;P2;durP2;ratioP2
9370;SDS011;4725;48.384;8.984;2023-02-24T00:00:04;7.77;;;5.50;;
9370;SDS011;4725;48.384;8.984;2023-02-24T00:02:45;9.07;;;4.80;;
9370;SDS011;4725;48.384;8.984;2023-02-24T00:05:12;9.73;;;4.77;;
9370;SDS011;4725;48.384;8.984;2023-02-24T00:07:39;10.27;;;5.07;;
9370;SDS011;4725;48.384;8.984;2023-02-24T00:10:06;8.57;;;5.27;;
9370;SDS011;4725;48.384;8.984;2023-02-24T00:12:34;9.03;;;5.17;;
9370;SDS011;4725;48.384;8.984;2023-02-24T00:15:01;9.07;;;5.33;;
9370;SDS011;4725;48.384;8.984;2023-02-24T00:17:30;10.93;;;5.83;;
9370;SDS011;4725;48.384;8.984;2023-02-24T00:19:57;12.83;;;5.73;;
9370;SDS011;4725;48.384;8.984;2023-02-24T00:22:24;15.20;;;6.43;;
9370;SDS011;4725;48.384;8.984;2023-02-24T00:24:52;6.07;;;4.53;;
9370;SDS011;4725;48.384;8.984;2023-02-24T00:27:19;8.57;;;5.67;;
9370;SDS011;4725;48.384;8.984;2023-02-24T00:29:46;12.47;;;6.07;;
9370;SDS011;4725;48.384;8.984;2023-02-24T00:32:14;9.53;;;5.20;;
9370;SDS011;4725;48.384;8.984;2023-02-24T00:34:41;14.07;;;5.43;;
9370;SDS011;4725;48.384;8.984;2023-02-24T00:37:08;11.17;;;6.47;;
9370;SDS011;4725;48.384;8.984;2023-02-24T00:39:36;9.00;;;5.57;;
9370;SDS011;4725;48.384;8.984;2023-02-24T00:42:05;12.10;;;6.60;;
9370;SDS011;4725;48.384;8.984;2023-02-24T00:44:33;12.33;;;6.33;;
9370;SDS011;4725;48.384;8.984;2023-02-24T00:47:01;13.50;;;5.93;;
9370;SDS011;4725;48.384;8.984;2023-02-24T00:49:32;11.87;;;5.83;;
9370;SDS011;4725;48.384;8.984;2023-02-24T00:52:06;10.00;;;6.00;;
9370;SDS011;4725;48.384;8.984;2023-02-24T00:54:37;12.30;;;6.63;;
9370;SDS011;4725;48.384;8.984;2023-02-24T00:57:04;11.07;;;5.33;;
9370;SDS011;4725;48.384;8.984;2023-02-24T00:59:32;11.37;;;5.87;;
9370;SDS011;4725;48.384;8.984;2023-02-24T01:01:59;8.80;;;5.40;;
9370;SDS011;4725;48.384;8.984;2023-02-24T01:04:27;10.73;;;5.03;;
9370;SDS011;4725;48.384;8.984;2023-02-24T01:06:56;11.13;;;5.57;;
9370;SDS011;4725;48.384;8.984;2023-02-24T01:09:26;7.87;;;4.87;;
9370;SDS011;4725;48.384;8.984;2023-02-24T01:11:54;10.30;;;5.20;;
9370;SDS011;4725;48.384;8.984;2023-02-24T01:14:41;13.97;;;5.53;;
9370;SDS011;4725;48.384;8.984;2023-02-24T01:17:09;15.73;;;5.77;;
9370;SDS011;4725;48.384;8.984;2023-02-24T01:19:36;8.07;;;5.07;;
9370;SDS011;4725;48.384;8.984;2023-02-24T01:22:06;8.57;;;5.10;;
9370;SDS011;4725;48.384;8.984;2023-02-24T01:24:36;11.70;;;5.60;;
9370;SDS011;4725;48.384;8.984;2023-02-24T01:27:04;11.40;;;5.13;;
9370;SDS011;4725;48.384;8.984;2023-02-24T01:29:32;9.07;;;5.90;;
9370;SDS011;4725;48.384;8.984;2023-02-24T01:32:03;10.87;;;6.13;;
9370;SDS011;4725;48.384;8.984;2023-02-24T01:34:30;9.10;;;5.27;;
9370;SDS011;4725;48.384;8.984;2023-02-24T01:36:59;11.80;;;5.57;;
9370;SDS011;4725;48.384;8.984;2023-02-24T01:39:27;11.37;;;5.90;;
9370;SDS011;4725;48.384;8.984;2023-02-24T01:41:54;11.53;;;6.40;;
9370;SDS011;4725;48.384;8.984;2023-02-24T01:47:29;13.57;;;5.47;;
9370;SDS011;4725;48.384;8.984;2023-02-24T01:49:57;12.80;;;5.27;;
9370;SDS011;4725;48.384;8.984;2023-02-24T01:52:24;10.70;;;5.77;;
9370;SDS011;4725;48.384;8.984;2023-02-24T01:54:57;11.37;;;6.80;;
9370;SDS011;4725;48.384;8.984;2023-02-24T01:57:27;11.43;;;5.50;;
9370;SDS011;4725;48.384;8.984;2023-02-24T01:59:56;9.87;;;5.50;;
9370;SDS011;4725;48.384;8.984;2023-02-24T02:02:35;10.73;;;5.67;;
9370;SDS011;4725;48.384;8.984;2023-02-24T02:05:06;11.27;;;6.00;;
9370;SDS011;4725;48.384;8.984;2023-02-24T02:07:35;6.43;;;4.97;;
9370;SDS011;4725;48.384;8.984;2023-02-24T02:10:07;7.93;;;5.40;;
9370;SDS011;4725;48.384;8.984;2023-02-24T02:12:35;11.70;;;5.50;;
9370;SDS011;4725;48.384;8.984;2023-02-24T02:15:08;10.67;;;5.57;;
9370;SDS011;4725;48.384;8.984;2023-02-24T02:17:38;12.67;;;6.03;;
9370;SDS011;4725;48.384;8.984;2023-02-24T02:20:20;8.67;;;6.03;;
9370;SDS011;4725;48.384;8.984;2023-02-24T02:23:19;15.47;;;7.60;;
9370;SDS011;4725;48.384;8.984;2023-02-24T02:26:12;10.90;;;6.73;;
9370;SDS011;4725;48.384;8.984;2023-02-24T02:28:57;10.43;;;6.87;;
9370;SDS011;4725;48.384;8.984;2023-02-24T02:31:48;13.23;;;5.73;;
9370;SDS011;4725;48.384;8.984;2023-02-24T02:34:37;15.87;;;6.07;;
9370;SDS011;4725;48.384;8.984;2023-02-24T02:37:11;12.17;;;5.33;;
9370;SDS011;4725;48.384;8.984;2023-02-24T02:39:45;9.37;;;5.70;;
9370;SDS011;4725;48.384;8.984;2023-02-24T02:42:20;10.07;;;5.53;;
9370;SDS011;4725;48.384;8.984;2023-02-24T02:44:56;11.47;;;5.63;;
9370;SDS011;4725;48.384;8.984;2023-02-24T02:47:32;8.07;;;6.00;;
9370;SDS011;4725;48.384;8.984;2023-02-24T02:50:06;14.90;;;6.13;;
9370;SDS011;4725;48.384;8.984;2023-02-24T02:52:44;9.27;;;5.27;;
9370;SDS011;4725;48.384;8.984;2023-02-24T02:55:19;11.73;;;5.50;;
9370;SDS011;4725;48.384;8.984;2023-02-24T02:57:50;11.23;;;5.53;;
9370;SDS011;4725;48.384;8.984;2023-02-24T03:00:21;12.60;;;5.90;;
9370;SDS011;4725;48.384;8.984;2023-02-24T03:02:54;8.80;;;5.37;;
9370;SDS011;4725;48.384;8.984;2023-02-24T03:05:26;12.37;;;5.80;;
9370;SDS011;4725;48.384;8.984;2023-02-24T03:07:57;8.77;;;5.57;;
9370;SDS011;4725;48.384;8.984;2023-02-24T03:10:26;11.27;;;5.57;;
9370;SDS011;4725;48.384;8.984;2023-02-24T03:12:58;8.50;;;5.33;;
9370;SDS011;4725;48.384;8.984;2023-02-24T03:15:29;14.80;;;5.87;;
9370;SDS011;4725;48.384;8.984;2023-02-24T03:18:00;13.07;;;6.47;;
9370;SDS011;4725;48.384;8.984;2023-02-24T03:20:37;10.47;;;5.90;;
9370;SDS011;4725;48.384;8.984;2023-02-24T03:23:10;10.77;;;5.87;;
9370;SDS011;4725;48.384;8.984;2023-02-24T03:25:41;10.13;;;5.93;;
9370;SDS011;4725;48.384;8.984;2023-02-24T03:28:13;7.83;;;4.90;;
9370;SDS011;4725;48.384;8.984;2023-02-24T03:30:46;8.73;;;4.90;;
9370;SDS011;4725;48.384;8.984;2023-02-24T03:33:26;10.27;;;5.23;;
9370;SDS011;4725;48.384;8.984;2023-02-24T03:35:59;8.60;;;5.07;;
9370;SDS011;4725;48.384;8.984;2023-02-24T03:38:26;10.07;;;5.67;;
9370;SDS011;4725;48.384;8.984;2023-02-24T03:40:55;11.23;;;5.63;;
9370;SDS011;4725;48.384;8.984;2023-02-24T03:43:25;10.03;;;5.40;;
9370;SDS011;4725;48.384;8.984;2023-02-24T03:45:55;11.37;;;5.80;;
9370;SDS011;4725;48.384;8.984;2023-02-24T03:48:23;8.23;;;5.20;;
9370;SDS011;4725;48.384;8.984;2023-02-24T03:50:52;12.30;;;5.70;;
9370;SDS011;4725;48.384;8.984;2023-02-24T03:53:24;11.47;;;5.67;;
9370;SDS011;4725;48.384;8.984;2023-02-24T03:55:59;7.90;;;5.30;;
9370;SDS011;4725;48.384;8.984;2023-02-24T03:58:37;9.47;;;5.77;;
9370;SDS011;4725;48.384;8.984;2023-02-24T04:01:13;10.27;;;5.50;;
9370;SDS011;4725;48.384;8.984;2023-02-24T04:03:51;8.47;;;5.00;;
9370;SDS011;4725;48.384;8.984;2023-02-24T04:06:28;9.50;;;4.70;;
9370;SDS011;4725;48.384;8.984;2023-02-24T04:09:05;8.93;;;5.43;;
9370;SDS011;4725;48.384;8.984;2023-02-24T04:11:40;9.00;;;6.13;;
9370;SDS011;4725;48.384;8.984;2023-02-24T04:14:11;14.03;;;5.63;;
9370;SDS011;4725;48.384;8.984;2023-02-24T04:16:44;8.27;;;5.93;;
9370;SDS011;4725;48.384;8.984;2023-02-24T04:19:17;8.73;;;5.27;;
9370;SDS011;4725;48.384;8.984;2023-02-24T04:21:48;10.63;;;5.47;;
9370;SDS011;4725;48.384;8.984;2023-02-24T04:24:18;8.73;;;5.60;;
9370;SDS011;4725;48.384;8.984;2023-02-24T04:26:47;14.10;;;9.70;;
9370;SDS011;4725;48.384;8.984;2023-02-24T04:29:18;8.27;;;5.80;;
9370;SDS011;4725;48.384;8.984;2023-02-24T04:31:48;9.00;;;5.93;;
9370;SDS011;4725;48.384;8.984;2023-02-24T04:34:18;8.37;;;5.60;;
9370;SDS011;4725;48.384;8.984;2023-02-24T04:36:45;10.60;;;5.43;;
9370;SDS011;4725;48.384;8.984;2023-02-24T04:39:14;16.83;;;5.83;;
9370;SDS011;4725;48.384;8.984;2023-02-24T04:41:44;9.03;;;5.47;;
9370;SDS011;4725;48.384;8.984;2023-02-24T04:44:13;9.80;;;5.47;;
9370;SDS011;4725;48.384;8.984;2023-02-24T04:46:42;9.73;;;6.30;;
9370;SDS011;4725;48.384;8.984;2023-02-24T04:49:10;13.67;;;6.80;;
9370;SDS011;4725;48.384;8.984;2023-02-24T04:51:38;14.93;;;6.00;;
9370;SDS011;4725;48.384;8.984;2023-02-24T04:54:07;14.37;;;6.83;;
9370;SDS011;4725;48.384;8.984;2023-02-24T04:56:34;28.23;;;7.80;;
9370;SDS011;4725;48.384;8.984;2023-02-24T04:59:06;21.07;;;7.83;;
9370;SDS011;4725;48.384;8.984;2023-02-24T05:01:34;29.20;;;9.03;;
9370;SDS011;4725;48.384;8.984;2023-02-24T05:04:04;34.53;;;9.50;;
9370;SDS011;4725;48.384;8.984;2023-02-24T05:06:31;26.90;;;9.93;;
9370;SDS011;4725;48.384;8.984;2023-02-24T05:08:57;35.90;;;10.50;;
9370;SDS011;4725;48.384;8.984;2023-02-24T05:11:30;36.47;;;9.30;;
9370;SDS011;4725;48.384;8.984;2023-02-24T05:13:59;28.37;;;10.90;;
9370;SDS011;4725;48.384;8.984;2023-02-24T05:16:29;34.13;;;9.40;;
9370;SDS011;4725;48.384;8.984;2023-02-24T05:18:57;31.23;;;10.30;;
9370;SDS011;4725;48.384;8.984;2023-02-24T05:21:37;38.33;;;11.77;;
9370;SDS011;4725;48.384;8.984;2023-02-24T05:24:06;35.23;;;10.67;;
9370;SDS011;4725;48.384;8.984;2023-02-24T05:26:36;42.37;;;12.07;;
9370;SDS011;4725;48.384;8.984;2023-02-24T05:29:05;55.60;;;13.93;;
9370;SDS011;4725;48.384;8.984;2023-02-24T05:31:34;48.77;;;14.97;;
9370;SDS011;4725;48.384;8.984;2023-02-24T05:34:03;51.20;;;14.33;;
9370;SDS011;4725;48.384;8.984;2023-02-24T05:36:32;54.43;;;14.57;;
9370;SDS011;4725;48.384;8.984;2023-02-24T05:39:01;43.30;;;13.63;;
9370;SDS011;4725;48.384;8.984;2023-02-24T05:41:32;47.27;;;13.90;;
9370;SDS011;4725;48.384;8.984;2023-02-24T05:44:03;65.87;;;15.30;;
9370;SDS011;4725;48.384;8.984;2023-02-24T05:46:35;61.90;;;15.20;;
9370;SDS011;4725;48.384;8.984;2023-02-24T05:49:04;66.63;;;14.53;;
9370;SDS011;4725;48.384;8.984;2023-02-24T05:51:33;58.53;;;14.63;;
9370;SDS011;4725;48.384;8.984;2023-02-24T05:54:03;86.87;;;16.40;;
9370;SDS011;4725;48.384;8.984;2023-02-24T05:56:30;56.00;;;13.53;;
9370;SDS011;4725;48.384;8.984;2023-02-24T05:58:58;87.13;;;16.53;;
9370;SDS011;4725;48.384;8.984;2023-02-24T06:01:27;89.83;;;17.23;;
9370;SDS011;4725;48.384;8.984;2023-02-24T06:03:59;79.47;;;17.13;;
9370;SDS011;4725;48.384;8.984;2023-02-24T06:06:30;72.60;;;16.10;;
9370;SDS011;4725;48.384;8.984;2023-02-24T06:09:01;45.60;;;16.03;;
9370;SDS011;4725;48.384;8.984;2023-02-24T06:11:32;53.97;;;15.97;;
9370;SDS011;4725;48.384;8.984;2023-02-24T06:14:00;41.80;;;17.10;;
9370;SDS011;4725;48.384;8.984;2023-02-24T06:16:27;46.40;;;15.93;;
9370;SDS011;4725;48.384;8.984;2023-02-24T06:18:55;42.80;;;17.07;;
9370;SDS011;4725;48.384;8.984;2023-02-24T06:21:24;37.00;;;16.13;;
9370;SDS011;4725;48.384;8.984;2023-02-24T06:23:53;41.87;;;16.67;;
9370;SDS011;4725;48.384;8.984;2023-02-24T06:26:20;33.90;;;14.73;;
9370;SDS011;4725;48.384;8.984;2023-02-24T06:28:47;34.13;;;14.50;;
9370;SDS011;4725;48.384;8.984;2023-02-24T06:31:18;35.33;;;15.17;;
9370;SDS011;4725;48.384;8.984;2023-02-24T06:33:46;30.23;;;13.23;;
9370;SDS011;4725;48.384;8.984;2023-02-24T06:36:13;36.80;;;13.40;;
9370;SDS011;4725;48.384;8.984;2023-02-24T06:38:42;31.67;;;14.43;;
9370;SDS011;4725;48.384;8.984;2023-02-24T06:41:10;25.00;;;12.73;;
9370;SDS011;4725;48.384;8.984;2023-02-24T06:43:37;25.17;;;11.93;;
9370;SDS011;4725;48.384;8.984;2023-02-24T06:46:05;26.50;;;12.43;;
9370;SDS011;4725;48.384;8.984;2023-02-24T06:48:33;30.37;;;12.80;;
9370;SDS011;4725;48.384;8.984;2023-02-24T06:51:03;27.97;;;12.77;;
9370;SDS011;4725;48.384;8.984;2023-02-24T06:53:31;33.47;;;12.67;;
9370;SDS011;4725;48.384;8.984;2023-02-24T06:56:04;29.97;;;11.43;;
9370;SDS011;4725;48.384;8.984;2023-02-24T06:58:38;31.13;;;13.60;;
9370;SDS011;4725;48.384;8.984;2023-02-24T07:01:08;30.83;;;13.70;;
9370;SDS011;4725;48.384;8.984;2023-02-24T07:03:36;35.40;;;14.00;;
9370;SDS011;4725;48.384;8.984;2023-02-24T07:06:11;44.07;;;13.67;;
9370;SDS011;4725;48.384;8.984;2023-02-24T07:08:50;33.13;;;11.20;;
9370;SDS011;4725;48.384;8.984;2023-02-24T07:11:19;68.07;;;12.53;;
9370;SDS011;4725;48.384;8.984;2023-02-24T07:13:46;44.03;;;11.17;;
9370;SDS011;4725;48.384;8.984;2023-02-24T07:16:14;39.60;;;11.00;;
9370;SDS011;4725;48.384;8.984;2023-02-24T07:18:43;54.13;;;11.30;;
9370;SDS011;4725;48.384;8.984;2023-02-24T07:21:12;47.40;;;11.37;;
9370;SDS011;4725;48.384;8.984;2023-02-24T07:23:40;44.83;;;11.17;;
9370;SDS011;4725;48.384;8.984;2023-02-24T07:26:09;54.97;;;12.10;;
9370;SDS011;4725;48.384;8.984;2023-02-24T07:28:39;79.30;;;10.13;;
9370;SDS011;4725;48.384;8.984;2023-02-24T07:31:07;38.33;;;9.83;;
9370;SDS011;4725;48.384;8.984;2023-02-24T07:33:36;39.73;;;10.83;;
9370;SDS011;4725;48.384;8.984;2023-02-24T07:36:04;33.83;;;10.80;;
9370;SDS011;4725;48.384;8.984;2023-02-24T07:38:34;27.87;;;9.90;;
9370;SDS011;4725;48.384;8.984;2023-02-24T07:41:01;25.60;;;10.37;;
9370;SDS011;4725;48.384;8.984;2023-02-24T07:43:30;24.43;;;10.87;;
9370;SDS011;4725;48.384;8.984;2023-02-24T07:46:05;27.57;;;11.33;;
9370;SDS011;4725;48.384;8.984;2023-02-24T07:48:33;30.27;;;10.50;;
9370;SDS011;4725;48.384;8.984;2023-02-24T07:51:00;30.70;;;12.00;;
9370;SDS011;4725;48.384;8.984;2023-02-24T07:53:31;30.60;;;13.20;;
9370;SDS011;4725;48.384;8.984;2023-02-24T07:55:58;24.77;;;11.27;;
9370;SDS011;4725;48.384;8.984;2023-02-24T07:58:27;26.83;;;11.57;;
9370;SDS011;4725;48.384;8.984;2023-02-24T08:00:54;29.87;;;13.03;;
9370;SDS011;4725;48.384;8.984;2023-02-24T08:03:34;28.77;;;13.10;;
9370;SDS011;4725;48.384;8.984;2023-02-24T08:06:05;18.73;;;9.83;;
9370;SDS011;4725;48.384;8.984;2023-02-24T08:08:39;24.37;;;11.40;;
9370;SDS011;4725;48.384;8.984;2023-02-24T08:11:22;15.73;;;9.67;;
9370;SDS011;4725;48.384;8.984;2023-02-24T08:13:50;18.17;;;9.77;;
9370;SDS011;4725;48.384;8.984;2023-02-24T08:16:19;19.80;;;9.70;;
9370;SDS011;4725;48.384;8.984;2023-02-24T08:18:48;22.20;;;9.47;;
9370;SDS011;4725;48.384;8.984;2023-02-24T08:21:21;19.70;;;9.73;;
9370;SDS011;4725;48.384;8.984;2023-02-24T08:23:51;17.30;;;8.80;;
9370;SDS011;4725;48.384;8.984;2023-02-24T08:26:18;16.20;;;8.63;;
9370;SDS011;4725;48.384;8.984;2023-02-24T08:28:54;14.93;;;7.73;;
9370;SDS011;4725;48.384;8.984;2023-02-24T08:31:22;12.57;;;7.47;;
9370;SDS011;4725;48.384;8.984;2023-02-24T08:33:50;13.60;;;7.83;;
9370;SDS011;4725;48.384;8.984;2023-02-24T08:36:20;12.53;;;7.93;;
9370;SDS011;4725;48.384;8.984;2023-02-24T08:38:50;15.07;;;8.00;;
9370;SDS011;4725;48.384;8.984;2023-02-24T08:41:18;12.53;;;8.27;;
9370;SDS011;4725;48.384;8.984;2023-02-24T08:43:53;10.67;;;7.67;;
9370;SDS011;4725;48.384;8.984;2023-02-24T08:46:21;12.63;;;7.97;;
9370;SDS011;4725;48.384;8.984;2023-02-24T08:48:52;16.37;;;8.67;;
9370;SDS011;4725;48.384;8.984;2023-02-24T08:51:22;10.47;;;7.20;;
9370;SDS011;4725;48.384;8.984;2023-02-24T08:53:53;10.73;;;6.43;;
9370;SDS011;4725;48.384;8.984;2023-02-24T08:56:22;10.97;;;6.53;;
9370;SDS011;4725;48.384;8.984;2023-02-24T08:58:52;14.47;;;7.50;;
9370;SDS011;4725;48.384;8.984;2023-02-24T09:01:29;10.73;;;6.47;;
9370;SDS011;4725;48.384;8.984;2023-02-24T09:04:01;11.77;;;7.07;;
9370;SDS011;4725;48.384;8.984;2023-02-24T09:06:33;10.97;;;6.87;;
9370;SDS011;4725;48.384;8.984;2023-02-24T09:09:03;12.87;;;7.63;;
9370;SDS011;4725;48.384;8.984;2023-02-24T09:11:43;15.13;;;6.80;;
9370;SDS011;4725;48.384;8.984;2023-02-24T09:14:12;15.00;;;6.70;;
9370;SDS011;4725;48.384;8.984;2023-02-24T09:16:43;16.00;;;7.10;;
9370;SDS011;4725;48.384;8.984;2023-02-24T09:19:28;10.50;;;6.50;;
9370;SDS011;4725;48.384;8.984;2023-02-24T09:22:13;13.13;;;6.77;;
9370;SDS011;4725;48.384;8.984;2023-02-24T09:24:55;10.73;;;6.60;;
9370;SDS011;4725;48.384;8.984;2023-02-24T09:27:42;13.60;;;6.60;;
9370;SDS011;4725;48.384;8.984;2023-02-24T09:30:12;11.23;;;7.63;;
9370;SDS011;4725;48.384;8.984;2023-02-24T09:33:00;10.03;;;6.07;;
9370;SDS011;4725;48.384;8.984;2023-02-24T09:35:32;10.43;;;6.40;;
9370;SDS011;4725;48.384;8.984;2023-02-24T09:38:01;11.80;;;6.33;;
9370;SDS011;4725;48.384;8.984;2023-02-24T09:40:30;14.00;;;6.53;;
9370;SDS011;4725;48.384;8.984;2023-02-24T09:43:05;12.37;;;6.67;;
9370;SDS011;4725;48.384;8.984;2023-02-24T09:45:41;11.20;;;6.40;;
9370;SDS011;4725;48.384;8.984;2023-02-24T09:48:19;14.03;;;6.73;;
9370;SDS011;4725;48.384;8.984;2023-02-24T09:50:51;11.23;;;6.90;;
9370;SDS011;4725;48.384;8.984;2023-02-24T09:53:28;18.87;;;6.87;;
9370;SDS011;4725;48.384;8.984;2023-02-24T09:56:08;19.63;;;7.07;;
9370;SDS011;4725;48.384;8.984;2023-02-24T09:58:42;12.77;;;6.40;;
9370;SDS011;4725;48.384;8.984;2023-02-24T10:01:18;13.20;;;6.77;;
9370;SDS011;4725;48.384;8.984;2023-02-24T10:03:58;12.37;;;7.00;;
9370;SDS011;4725;48.384;8.984;2023-02-24T10:06:38;12.63;;;7.13;;
9370;SDS011;4725;48.384;8.984;2023-02-24T10:09:13;14.23;;;6.57;;
9370;SDS011;4725;48.384;8.984;2023-02-24T10:11:49;10.60;;;5.90;;
9370;SDS011;4725;48.384;8.984;2023-02-24T10:14:19;9.00;;;6.13;;
9370;SDS011;4725;48.384;8.984;2023-02-24T10:16:53;11.80;;;6.83;;
9370;SDS011;4725;48.384;8.984;2023-02-24T10:19:37;12.83;;;6.23;;
9370;SDS011;4725;48.384;8.984;2023-02-24T10:22:09;12.13;;;6.50;;
9370;SDS011;4725;48.384;8.984;2023-02-24T10:24:51;12.33;;;6.13;;
9370;SDS011;4725;48.384;8.984;2023-02-24T10:27:35;11.37;;;6.07;;
9370;SDS011;4725;48.384;8.984;2023-02-24T10:30:08;11.43;;;6.33;;
9370;SDS011;4725;48.384;8.984;2023-02-24T10:33:05;13.37;;;7.77;;
9370;SDS011;4725;48.384;8.984;2023-02-24T10:35:49;11.23;;;5.83;;
9370;SDS011;4725;48.384;8.984;2023-02-24T10:38:20;19.37;;;7.33;;
9370;SDS011;4725;48.384;8.984;2023-02-24T10:40:48;14.63;;;7.70;;
9370;SDS011;4725;48.384;8.984;2023-02-24T10:43:21;15.63;;;6.43;;
9370;SDS011;4725;48.384;8.984;2023-02-24T10:45:56;10.97;;;7.10;;
9370;SDS011;4725;48.384;8.984;2023-02-24T10:48:30;9.17;;;6.13;;
9370;SDS011;4725;48.384;8.984;2023-02-24T10:51:06;16.10;;;6.57;;
9370;SDS011;4725;48.384;8.984;2023-02-24T10:53:44;14.33;;;7.00;;
9370;SDS011;4725;48.384;8.984;2023-02-24T10:56:17;12.93;;;6.77;;
9370;SDS011;4725;48.384;8.984;2023-02-24T10:59:01;10.67;;;6.17;;
9370;SDS011;4725;48.384;8.984;2023-02-24T11:01:50;10.13;;;6.30;;
9370;SDS011;4725;48.384;8.984;2023-02-24T11:04:29;10.80;;;5.90;;
9370;SDS011;4725;48.384;8.984;2023-02-24T11:07:11;9.97;;;5.60;;
9370;SDS011;4725;48.384;8.984;2023-02-24T11:09:59;11.20;;;5.67;;
9370;SDS011;4725;48.384;8.984;2023-02-24T11:12:35;14.67;;;6.23;;
9370;SDS011;4725;48.384;8.984;2023-02-24T11:15:21;11.80;;;5.73;;
9370;SDS011;4725;48.384;8.984;2023-02-24T11:18:13;14.63;;;5.90;;
9370;SDS011;4725;48.384;8.984;2023-02-24T11:20:44;10.70;;;6.07;;
9370;SDS011;4725;48.384;8.984;2023-02-24T11:23:14;13.97;;;5.90;;
9370;SDS011;4725;48.384;8.984;2023-02-24T11:25:46;9.43;;;6.23;;
9370;SDS011;4725;48.384;8.984;2023-02-24T11:28:18;12.23;;;6.50;;
9370;SDS011;4725;48.384;8.984;2023-02-24T11:31:08;13.87;;;7.00;;
9370;SDS011;4725;48.384;8.984;2023-02-24T11:33:48;14.77;;;6.47;;
9370;SDS011;4725;48.384;8.984;2023-02-24T11:36:22;11.73;;;7.00;;
9370;SDS011;4725;48.384;8.984;2023-02-24T11:39:02;9.63;;;6.07;;
9370;SDS011;4725;48.384;8.984;2023-02-24T11:41:42;10.20;;;6.43;;
9370;SDS011;4725;48.384;8.984;2023-02-24T11:44:17;15.67;;;6.60;;
9370;SDS011;4725;48.384;8.984;2023-02-24T11:46:49;14.73;;;6.63;;
9370;SDS011;4725;48.384;8.984;2023-02-24T11:49:24;10.73;;;6.33;;
9370;SDS011;4725;48.384;8.984;2023-02-24T11:51:55;11.63;;;6.33;;
9370;SDS011;4725;48.384;8.984;2023-02-24T11:54:25;13.40;;;6.27;;
9370;SDS011;4725;48.384;8.984;2023-02-24T11:56:59;17.90;;;6.67;;
9370;SDS011;4725;48.384;8.984;2023-02-24T11:59:29;10.67;;;6.33;;
9370;SDS011;4725;48.384;8.984;2023-02-24T12:02:10;12.70;;;6.10;;
9370;SDS011;4725;48.384;8.984;2023-02-24T12:04:44;11.23;;;7.03;;
9370;SDS011;4725;48.384;8.984;2023-02-24T12:07:20;10.23;;;7.50;;
9370;SDS011;4725;48.384;8.984;2023-02-24T12:09:53;10.73;;;6.57;;
9370;SDS011;4725;48.384;8.984;2023-02-24T12:12:27;13.73;;;6.27;;
9370;SDS011;4725;48.384;8.984;2023-02-24T12:15:01;10.83;;;6.70;;
9370;SDS011;4725;48.384;8.984;2023-02-24T12:17:36;9.50;;;6.23;;
9370;SDS011;4725;48.384;8.984;2023-02-24T12:20:13;11.47;;;6.70;;
9370;SDS011;4725;48.384;8.984;2023-02-24T12:22:45;12.43;;;6.70;;
9370;SDS011;4725;48.384;8.984;2023-02-24T12:25:17;13.37;;;6.27;;
9370;SDS011;4725;48.384;8.984;2023-02-24T12:27:55;17.00;;;6.17;;
9370;SDS011;4725;48.384;8.984;2023-02-24T12:30:42;12.87;;;6.60;;
9370;SDS011;4725;48.384;8.984;2023-02-24T12:33:19;14.40;;;7.43;;
9370;SDS011;4725;48.384;8.984;2023-02-24T12:36:00;14.17;;;7.67;;
9370;SDS011;4725;48.384;8.984;2023-02-24T12:38:38;18.97;;;7.63;;
9370;SDS011;4725;48.384;8.984;2023-02-24T12:41:19;20.37;;;9.80;;
9370;SDS011;4725;48.384;8.984;2023-02-24T12:44:04;13.63;;;7.17;;
9370;SDS011;4725;48.384;8.984;2023-02-24T12:46:41;12.53;;;7.00;;
9370;SDS011;4725;48.384;8.984;2023-02-24T12:49:15;11.80;;;6.33;;
9370;SDS011;4725;48.384;8.984;2023-02-24T12:51:51;14.43;;;7.27;;
9370;SDS011;4725;48.384;8.984;2023-02-24T12:54:27;19.03;;;8.37;;
9370;SDS011;4725;48.384;8.984;2023-02-24T12:56:59;9.90;;;5.53;;
9370;SDS011;4725;48.384;8.984;2023-02-24T12:59:37;13.07;;;7.20;;
9370;SDS011;4725;48.384;8.984;2023-02-24T13:02:06;14.87;;;6.37;;
9370;SDS011;4725;48.384;8.984;2023-02-24T13:04:41;11.17;;;6.53;;
9370;SDS011;4725;48.384;8.984;2023-02-24T13:07:21;29.53;;;16.97;;
9370;SDS011;4725;48.384;8.984;2023-02-24T13:10:05;32.27;;;13.40;;
9370;SDS011;4725;48.384;8.984;2023-02-24T13:12:44;14.70;;;6.00;;
9370;SDS011;4725;48.384;8.984;2023-02-24T13:15:18;62.50;;;31.60;;
9370;SDS011;4725;48.384;8.984;2023-02-24T13:17:56;21.67;;;10.37;;
9370;SDS011;4725;48.384;8.984;2023-02-24T13:20:43;21.47;;;10.30;;
9370;SDS011;4725;48.384;8.984;2023-02-24T13:30:42;9.63;;;4.63;;
9370;SDS011;4725;48.384;8.984;2023-02-24T13:34:14;10.93;;;4.27;;
9370;SDS011;4725;48.384;8.984;2023-02-24T13:36:55;14.53;;;7.63;;
9370;SDS011;4725;48.384;8.984;2023-02-24T14:19:32;15.57;;;5.77;;
9370;SDS011;4725;48.384;8.984;2023-02-24T14:22:24;11.60;;;5.97;;
9370;SDS011;4725;48.384;8.984;2023-02-24T14:25:01;11.67;;;5.37;;
9370;SDS011;4725;48.384;8.984;2023-02-24T14:31:03;10.97;;;4.63;;
9370;SDS011;4725;48.384;8.984;2023-02-24T14:33:35;16.47;;;5.63;;
9370;SDS011;4725;48.384;8.984;2023-02-24T14:36:06;10.83;;;5.30;;
9370;SDS011;4725;48.384;8.984;2023-02-24T14:38:42;11.60;;;5.77;;
9370;SDS011;4725;48.384;8.984;2023-02-24T14:41:16;11.17;;;5.07;;
9370;SDS011;4725;48.384;8.984;2023-02-24T14:43:46;11.47;;;4.90;;
9370;SDS011;4725;48.384;8.984;2023-02-24T14:46:13;15.57;;;7.60;;
9370;SDS011;4725;48.384;8.984;2023-02-24T14:48:42;15.63;;;5.07;;
9370;SDS011;4725;48.384;8.984;2023-02-24T14:51:14;18.43;;;6.53;;
9370;SDS011;4725;48.384;8.984;2023-02-24T14:53:49;11.67;;;6.47;;
9370;SDS011;4725;48.384;8.984;2023-02-24T14:56:19;10.67;;;5.30;;
9370;SDS011;4725;48.384;8.984;2023-02-24T14:58:49;9.23;;;5.10;;
9370;SDS011;4725;48.384;8.984;2023-02-24T15:01:23;16.00;;;5.30;;
9370;SDS011;4725;48.384;8.984;2023-02-24T15:03:56;14.00;;;5.63;;
9370;SDS011;4725;48.384;8.984;2023-02-24T15:06:27;10.57;;;4.80;;
9370;SDS011;4725;48.384;8.984;2023-02-24T15:08:58;14.33;;;5.43;;
9370;SDS011;4725;48.384;8.984;2023-02-24T15:11:28;12.70;;;6.13;;
9370;SDS011;4725;48.384;8.984;2023-02-24T15:13:57;17.03;;;6.60;;
9370;SDS011;4725;48.384;8.984;2023-02-24T15:16:31;13.40;;;5.10;;
9370;SDS011;4725;48.384;8.984;2023-02-24T15:19:16;13.23;;;6.57;;
9370;SDS011;4725;48.384;8.984;2023-02-24T15:21:53;11.97;;;5.73;;
9370;SDS011;4725;48.384;8.984;2023-02-24T15:24:25;16.93;;;6.07;;
9370;SDS011;4725;48.384;8.984;2023-02-24T15:26:55;7.20;;;4.60;;
9370;SDS011;4725;48.384;8.984;2023-02-24T15:29:25;8.43;;;4.70;;
9370;SDS011;4725;48.384;8.984;2023-02-24T15:31:54;10.80;;;4.63;;
9370;SDS011;4725;48.384;8.984;2023-02-24T15:34:22;13.17;;;5.37;;
9370;SDS011;4725;48.384;8.984;2023-02-24T15:36:53;13.63;;;6.50;;
9370;SDS011;4725;48.384;8.984;2023-02-24T15:39:23;14.77;;;6.10;;
9370;SDS011;4725;48.384;8.984;2023-02-24T15:42:04;12.80;;;6.07;;
9370;SDS011;4725;48.384;8.984;2023-02-24T15:44:33;8.33;;;5.13;;
9370;SDS011;4725;48.384;8.984;2023-02-24T15:47:15;10.27;;;5.53;;
9370;SDS011;4725;48.384;8.984;2023-02-24T15:49:47;13.33;;;6.30;;
9370;SDS011;4725;48.384;8.984;2023-02-24T15:52:17;15.03;;;7.47;;
9370;SDS011;4725;48.384;8.984;2023-02-24T15:54:48;13.00;;;5.53;;
9370;SDS011;4725;48.384;8.984;2023-02-24T15:57:16;14.07;;;5.77;;
9370;SDS011;4725;48.384;8.984;2023-02-24T15:59:44;11.17;;;5.47;;
9370;SDS011;4725;48.384;8.984;2023-02-24T16:02:13;10.23;;;7.00;;
9370;SDS011;4725;48.384;8.984;2023-02-24T16:04:42;25.73;;;7.77;;
9370;SDS011;4725;48.384;8.984;2023-02-24T16:07:10;10.60;;;5.80;;
9370;SDS011;4725;48.384;8.984;2023-02-24T16:09:44;17.57;;;10.70;;
9370;SDS011;4725;48.384;8.984;2023-02-24T16:12:14;23.30;;;12.63;;
9370;SDS011;4725;48.384;8.984;2023-02-24T16:14:46;17.60;;;8.60;;
9370;SDS011;4725;48.384;8.984;2023-02-24T16:17:21;15.83;;;9.83;;
9370;SDS011;4725;48.384;8.984;2023-02-24T16:19:53;10.53;;;6.50;;
9370;SDS011;4725;48.384;8.984;2023-02-24T16:22:21;14.30;;;5.70;;
9370;SDS011;4725;48.384;8.984;2023-02-24T16:24:50;19.27;;;12.40;;
9370;SDS011;4725;48.384;8.984;2023-02-24T16:27:18;11.63;;;7.97;;